Agios Stilianos — SW6053 — position and weather

sailwx.info

Track history (hours):
 
Tides and Currents Weather Stations Pressure Air Temp Water Temp Dewpoint Dewpoint Depression Visibility Wind Speed Wind Dir Waves Ship Positions

Agios Stilianos

Last reported at 2017-Aug-23 14:41 UTC. Time now 2017-Sep-21 09:00 UTC.
Position N 40°30' E 025°04'.
Warning: this ship's position is 28 days out of date.

Length 22 m; draft 2.6 m.

Type: Fishing. MMSI: 237350000.

Date/timePositionNaut miles runAvg speedWind from/ knotsBaromVisibWave heightAir tempDewpointWater temp
2017-Aug-23 14:41N 40°30' E 025°04'0 2.8
2017-Aug-23 14:30N 40°30' E 025°03'  
2017-Aug-18 20:33N 40°51' E 024°42'0 1.8
2017-Aug-18 20:31N 40°51' E 024°42'2 4.6
2017-Aug-18 20:00N 40°50' E 024°44'4 7.7
2017-Aug-18 19:29N 40°47' E 024°48'4 7.6
2017-Aug-18 18:59N 40°45' E 024°53'2 0.0
2017-Aug-17 01:28N 40°44' E 024°52'4 8.5
2017-Aug-17 01:00N 40°46' E 024°48'4 8.5
2017-Aug-17 00:30N 40°48' E 024°43'5 9.0
2017-Aug-17 00:00N 40°50' E 024°38'4 8.7
2017-Aug-16 23:31N 40°52' E 024°33'4 8.4
2017-Aug-16 23:00N 40°54' E 024°28'  
Track history (hours):
 
Tides and Currents Weather Stations Pressure Air Temp Water Temp Dewpoint Dewpoint Depression Visibility Wind Speed Wind Dir Waves Ship Positions

Agios Stilianos

Last reported at 2017-Aug-23 14:41 UTC. Time now 2017-Sep-21 09:00 UTC.
Position N 40°30' E 025°04'.
Warning: this ship's position is 28 days out of date.

Length 22 m; draft 2.6 m.

Type: Fishing. MMSI: 237350000.

Date/timePositionNaut miles runAvg speedWind from/ knotsBaromVisibWave heightAir tempDewpointWater temp
2017-Aug-23 14:41N 40°30' E 025°04'0 2.8
2017-Aug-23 14:30N 40°30' E 025°03'  
2017-Aug-18 20:33N 40°51' E 024°42'0 1.8
2017-Aug-18 20:31N 40°51' E 024°42'2 4.6
2017-Aug-18 20:00N 40°50' E 024°44'4 7.7
2017-Aug-18 19:29N 40°47' E 024°48'4 7.6
2017-Aug-18 18:59N 40°45' E 024°53'2 0.0
2017-Aug-17 01:28N 40°44' E 024°52'4 8.5
2017-Aug-17 01:00N 40°46' E 024°48'4 8.5
2017-Aug-17 00:30N 40°48' E 024°43'5 9.0
2017-Aug-17 00:00N 40°50' E 024°38'4 8.7
2017-Aug-16 23:31N 40°52' E 024°33'4 8.4
2017-Aug-16 23:00N 40°54' E 024°28'  

Dump ship's entire track history